sensor_id;sensor_type;location;lat;lon;timestamp;temperature;humidity
34873;DHT22;21084;51.098;14.506;2023-08-17T00:00:47;19.50;99.90
34873;DHT22;21084;51.098;14.506;2023-08-17T00:03:15;19.40;99.90
34873;DHT22;21084;51.098;14.506;2023-08-17T00:05:43;19.30;99.90
34873;DHT22;21084;51.098;14.506;2023-08-17T00:08:11;19.30;99.90
34873;DHT22;21084;51.098;14.506;2023-08-17T00:10:40;19.20;99.90
34873;DHT22;21084;51.098;14.506;2023-08-17T00:13:10;19.10;99.90
34873;DHT22;21084;51.098;14.506;2023-08-17T00:15:38;19.10;99.90
34873;DHT22;21084;51.098;14.506;2023-08-17T00:18:08;19.10;99.90
34873;DHT22;21084;51.098;14.506;2023-08-17T00:20:36;19.00;99.90
34873;DHT22;21084;51.098;14.506;2023-08-17T00:23:05;19.00;99.90
34873;DHT22;21084;51.098;14.506;2023-08-17T00:25:33;19.00;99.90
34873;DHT22;21084;51.098;14.506;2023-08-17T00:28:02;19.00;99.90
34873;DHT22;21084;51.098;14.506;2023-08-17T00:30:31;19.00;99.90
34873;DHT22;21084;51.098;14.506;2023-08-17T00:33:03;19.00;99.90
34873;DHT22;21084;51.098;14.506;2023-08-17T00:35:32;18.90;99.90
34873;DHT22;21084;51.098;14.506;2023-08-17T00:38:00;18.90;99.90
34873;DHT22;21084;51.098;14.506;2023-08-17T00:40:29;18.90;99.90
34873;DHT22;21084;51.098;14.506;2023-08-17T00:42:57;18.90;99.90
34873;DHT22;21084;51.098;14.506;2023-08-17T00:45:26;18.90;99.90
34873;DHT22;21084;51.098;14.506;2023-08-17T00:47:56;18.80;99.90
34873;DHT22;21084;51.098;14.506;2023-08-17T00:50:25;18.90;99.90
34873;DHT22;21084;51.098;14.506;2023-08-17T00:52:54;18.90;99.90
34873;DHT22;21084;51.098;14.506;2023-08-17T00:55:23;18.80;99.90
34873;DHT22;21084;51.098;14.506;2023-08-17T00:57:52;18.80;99.90
34873;DHT22;21084;51.098;14.506;2023-08-17T01:00:21;18.90;99.90
34873;DHT22;21084;51.098;14.506;2023-08-17T01:02:50;18.90;99.90
34873;DHT22;21084;51.098;14.506;2023-08-17T01:05:20;18.90;99.90
34873;DHT22;21084;51.098;14.506;2023-08-17T01:07:49;18.90;99.90
34873;DHT22;21084;51.098;14.506;2023-08-17T01:10:17;19.00;99.90
34873;DHT22;21084;51.098;14.506;2023-08-17T01:12:47;19.00;99.90
34873;DHT22;21084;51.098;14.506;2023-08-17T01:15:17;19.10;99.90
34873;DHT22;21084;51.098;14.506;2023-08-17T01:17:50;19.10;99.90
34873;DHT22;21084;51.098;14.506;2023-08-17T01:20:21;19.10;99.90
34873;DHT22;21084;51.098;14.506;2023-08-17T01:22:51;19.20;99.90
34873;DHT22;21084;51.098;14.506;2023-08-17T01:25:22;19.20;99.90
34873;DHT22;21084;51.098;14.506;2023-08-17T01:27:50;19.10;99.90
34873;DHT22;21084;51.098;14.506;2023-08-17T01:30:18;19.10;99.90
34873;DHT22;21084;51.098;14.506;2023-08-17T01:32:48;19.10;99.90
34873;DHT22;21084;51.098;14.506;2023-08-17T01:35:19;19.00;99.90
34873;DHT22;21084;51.098;14.506;2023-08-17T01:37:50;19.00;99.90
34873;DHT22;21084;51.098;14.506;2023-08-17T01:40:19;18.90;99.90
34873;DHT22;21084;51.098;14.506;2023-08-17T01:42:49;18.90;99.90
34873;DHT22;21084;51.098;14.506;2023-08-17T01:45:17;19.00;99.90
34873;DHT22;21084;51.098;14.506;2023-08-17T01:47:46;19.00;99.90
34873;DHT22;21084;51.098;14.506;2023-08-17T01:50:14;19.00;99.90
34873;DHT22;21084;51.098;14.506;2023-08-17T01:52:42;19.00;99.90
34873;DHT22;21084;51.098;14.506;2023-08-17T01:55:11;19.00;99.90
34873;DHT22;21084;51.098;14.506;2023-08-17T01:57:39;18.90;99.90
34873;DHT22;21084;51.098;14.506;2023-08-17T02:00:10;19.00;99.90
34873;DHT22;21084;51.098;14.506;2023-08-17T02:02:39;18.90;99.90
34873;DHT22;21084;51.098;14.506;2023-08-17T02:05:08;18.90;99.90
34873;DHT22;21084;51.098;14.506;2023-08-17T02:07:36;18.90;99.90
34873;DHT22;21084;51.098;14.506;2023-08-17T02:10:05;18.90;99.90
34873;DHT22;21084;51.098;14.506;2023-08-17T02:12:33;18.90;99.90
34873;DHT22;21084;51.098;14.506;2023-08-17T02:15:02;18.80;99.90
34873;DHT22;21084;51.098;14.506;2023-08-17T02:17:32;18.80;99.90
34873;DHT22;21084;51.098;14.506;2023-08-17T02:20:00;18.70;99.90
34873;DHT22;21084;51.098;14.506;2023-08-17T02:22:30;18.70;99.90
34873;DHT22;21084;51.098;14.506;2023-08-17T02:24:58;18.70;99.90
34873;DHT22;21084;51.098;14.506;2023-08-17T02:27:26;18.60;99.90
34873;DHT22;21084;51.098;14.506;2023-08-17T02:29:58;18.60;99.90
34873;DHT22;21084;51.098;14.506;2023-08-17T02:32:26;18.60;99.90
34873;DHT22;21084;51.098;14.506;2023-08-17T02:34:55;18.60;99.90
34873;DHT22;21084;51.098;14.506;2023-08-17T02:37:24;18.70;99.90
34873;DHT22;21084;51.098;14.506;2023-08-17T02:39:52;18.70;99.90
34873;DHT22;21084;51.098;14.506;2023-08-17T02:42:21;18.80;99.90
34873;DHT22;21084;51.098;14.506;2023-08-17T02:44:49;18.80;99.90
34873;DHT22;21084;51.098;14.506;2023-08-17T02:47:17;18.80;99.90
34873;DHT22;21084;51.098;14.506;2023-08-17T02:49:45;18.80;99.90
34873;DHT22;21084;51.098;14.506;2023-08-17T02:52:17;18.80;99.90
34873;DHT22;21084;51.098;14.506;2023-08-17T02:54:46;18.80;99.90
34873;DHT22;21084;51.098;14.506;2023-08-17T02:57:14;18.70;99.90
34873;DHT22;21084;51.098;14.506;2023-08-17T02:59:42;18.60;99.90
34873;DHT22;21084;51.098;14.506;2023-08-17T03:02:11;18.60;99.90
34873;DHT22;21084;51.098;14.506;2023-08-17T03:04:39;18.60;99.90
34873;DHT22;21084;51.098;14.506;2023-08-17T03:07:07;18.50;99.90
34873;DHT22;21084;51.098;14.506;2023-08-17T03:09:37;18.40;99.90
34873;DHT22;21084;51.098;14.506;2023-08-17T03:12:06;18.30;99.90
34873;DHT22;21084;51.098;14.506;2023-08-17T03:14:34;18.30;99.90
34873;DHT22;21084;51.098;14.506;2023-08-17T03:17:03;18.20;99.90
34873;DHT22;21084;51.098;14.506;2023-08-17T03:19:31;18.10;99.90
34873;DHT22;21084;51.098;14.506;2023-08-17T03:21:59;18.10;99.90
34873;DHT22;21084;51.098;14.506;2023-08-17T03:24:27;18.00;99.90
34873;DHT22;21084;51.098;14.506;2023-08-17T03:26:57;18.00;99.90
34873;DHT22;21084;51.098;14.506;2023-08-17T03:29:25;18.00;99.90
34873;DHT22;21084;51.098;14.506;2023-08-17T03:31:54;18.00;99.90
34873;DHT22;21084;51.098;14.506;2023-08-17T03:34:23;18.00;99.90
34873;DHT22;21084;51.098;14.506;2023-08-17T03:36:51;18.00;99.90
34873;DHT22;21084;51.098;14.506;2023-08-17T03:39:19;18.00;99.90
34873;DHT22;21084;51.098;14.506;2023-08-17T03:41:47;18.00;99.90
34873;DHT22;21084;51.098;14.506;2023-08-17T03:44:17;18.00;99.90
34873;DHT22;21084;51.098;14.506;2023-08-17T03:46:45;18.00;99.90
34873;DHT22;21084;51.098;14.506;2023-08-17T03:49:13;18.00;99.90
34873;DHT22;21084;51.098;14.506;2023-08-17T03:51:43;18.00;99.90
34873;DHT22;21084;51.098;14.506;2023-08-17T03:54:12;18.00;99.90
34873;DHT22;21084;51.098;14.506;2023-08-17T03:56:40;18.00;99.90
34873;DHT22;21084;51.098;14.506;2023-08-17T03:59:08;18.00;99.90
34873;DHT22;21084;51.098;14.506;2023-08-17T04:01:38;18.00;99.90
34873;DHT22;21084;51.098;14.506;2023-08-17T04:04:06;18.00;99.90
34873;DHT22;21084;51.098;14.506;2023-08-17T04:06:35;18.00;99.90
34873;DHT22;21084;51.098;14.506;2023-08-17T04:09:06;18.00;99.90
34873;DHT22;21084;51.098;14.506;2023-08-17T04:11:34;18.00;99.90
34873;DHT22;21084;51.098;14.506;2023-08-17T04:14:03;18.00;99.90
34873;DHT22;21084;51.098;14.506;2023-08-17T04:16:31;18.10;99.90
34873;DHT22;21084;51.098;14.506;2023-08-17T04:19:01;18.10;99.90
34873;DHT22;21084;51.098;14.506;2023-08-17T04:21:29;18.10;99.90
34873;DHT22;21084;51.098;14.506;2023-08-17T04:23:58;18.10;99.90
34873;DHT22;21084;51.098;14.506;2023-08-17T04:26:26;18.10;99.90
34873;DHT22;21084;51.098;14.506;2023-08-17T04:28:54;18.10;99.90
34873;DHT22;21084;51.098;14.506;2023-08-17T04:31:23;18.20;99.90
34873;DHT22;21084;51.098;14.506;2023-08-17T04:33:51;18.20;99.90
34873;DHT22;21084;51.098;14.506;2023-08-17T04:36:21;18.20;99.90
34873;DHT22;21084;51.098;14.506;2023-08-17T04:38:50;18.30;99.90
34873;DHT22;21084;51.098;14.506;2023-08-17T04:41:18;18.30;99.90
34873;DHT22;21084;51.098;14.506;2023-08-17T04:43:47;18.40;99.90
34873;DHT22;21084;51.098;14.506;2023-08-17T04:46:16;18.50;99.90
34873;DHT22;21084;51.098;14.506;2023-08-17T04:48:44;18.50;99.90
34873;DHT22;21084;51.098;14.506;2023-08-17T04:51:13;18.60;99.90
34873;DHT22;21084;51.098;14.506;2023-08-17T04:53:44;18.70;99.90
34873;DHT22;21084;51.098;14.506;2023-08-17T04:56:12;18.80;99.90
34873;DHT22;21084;51.098;14.506;2023-08-17T04:58:40;18.80;99.90
34873;DHT22;21084;51.098;14.506;2023-08-17T05:01:09;18.90;99.90
34873;DHT22;21084;51.098;14.506;2023-08-17T05:03:37;18.90;99.90
34873;DHT22;21084;51.098;14.506;2023-08-17T05:06:06;19.00;99.90
34873;DHT22;21084;51.098;14.506;2023-08-17T05:08:35;19.00;99.90
34873;DHT22;21084;51.098;14.506;2023-08-17T05:11:05;19.10;99.90
34873;DHT22;21084;51.098;14.506;2023-08-17T05:13:33;19.10;99.90
34873;DHT22;21084;51.098;14.506;2023-08-17T05:16:01;19.20;99.90
34873;DHT22;21084;51.098;14.506;2023-08-17T05:18:31;19.20;99.90
34873;DHT22;21084;51.098;14.506;2023-08-17T05:20:59;19.20;99.90
34873;DHT22;21084;51.098;14.506;2023-08-17T05:23:27;19.30;99.90
34873;DHT22;21084;51.098;14.506;2023-08-17T05:25:56;19.30;99.90
34873;DHT22;21084;51.098;14.506;2023-08-17T05:28:25;19.30;99.90
34873;DHT22;21084;51.098;14.506;2023-08-17T05:30:54;19.30;99.90
34873;DHT22;21084;51.098;14.506;2023-08-17T05:33:22;19.30;99.90
34873;DHT22;21084;51.098;14.506;2023-08-17T05:35:53;19.30;99.90
34873;DHT22;21084;51.098;14.506;2023-08-17T05:38:22;19.40;99.90
34873;DHT22;21084;51.098;14.506;2023-08-17T05:40:53;19.40;99.90
34873;DHT22;21084;51.098;14.506;2023-08-17T05:43:22;19.50;99.90
34873;DHT22;21084;51.098;14.506;2023-08-17T05:45:52;19.50;99.90
34873;DHT22;21084;51.098;14.506;2023-08-17T05:48:20;19.60;99.90
34873;DHT22;21084;51.098;14.506;2023-08-17T05:50:48;19.60;99.90
34873;DHT22;21084;51.098;14.506;2023-08-17T05:53:17;19.70;99.90
34873;DHT22;21084;51.098;14.506;2023-08-17T05:55:45;19.80;99.90
34873;DHT22;21084;51.098;14.506;2023-08-17T05:58:14;19.90;99.90
34873;DHT22;21084;51.098;14.506;2023-08-17T06:00:42;20.00;99.90
34873;DHT22;21084;51.098;14.506;2023-08-17T06:03:11;20.10;99.90
34873;DHT22;21084;51.098;14.506;2023-08-17T06:05:40;20.20;99.90
34873;DHT22;21084;51.098;14.506;2023-08-17T06:08:08;20.30;99.90
34873;DHT22;21084;51.098;14.506;2023-08-17T06:10:36;20.40;99.90
34873;DHT22;21084;51.098;14.506;2023-08-17T06:13:05;20.60;99.90
34873;DHT22;21084;51.098;14.506;2023-08-17T06:15:33;20.70;99.90
34873;DHT22;21084;51.098;14.506;2023-08-17T06:18:02;20.80;99.90
34873;DHT22;21084;51.098;14.506;2023-08-17T06:20:32;20.80;99.90
34873;DHT22;21084;51.098;14.506;2023-08-17T06:23:00;20.90;99.90
34873;DHT22;21084;51.098;14.506;2023-08-17T06:25:28;21.00;99.90
34873;DHT22;21084;51.098;14.506;2023-08-17T06:27:57;21.10;99.90
34873;DHT22;21084;51.098;14.506;2023-08-17T06:30:25;21.10;99.90
34873;DHT22;21084;51.098;14.506;2023-08-17T06:32:54;21.10;99.90
34873;DHT22;21084;51.098;14.506;2023-08-17T06:35:23;21.20;99.90
34873;DHT22;21084;51.098;14.506;2023-08-17T06:37:52;21.30;99.90
34873;DHT22;21084;51.098;14.506;2023-08-17T06:40:23;21.40;99.90
34873;DHT22;21084;51.098;14.506;2023-08-17T06:42:51;21.50;99.90
34873;DHT22;21084;51.098;14.506;2023-08-17T06:45:21;21.60;99.90
34873;DHT22;21084;51.098;14.506;2023-08-17T06:47:50;21.70;99.90
34873;DHT22;21084;51.098;14.506;2023-08-17T06:50:18;21.90;99.90
34873;DHT22;21084;51.098;14.506;2023-08-17T06:52:46;22.10;99.90
34873;DHT22;21084;51.098;14.506;2023-08-17T06:55:16;22.30;99.90
34873;DHT22;21084;51.098;14.506;2023-08-17T06:57:44;22.30;99.90
34873;DHT22;21084;51.098;14.506;2023-08-17T07:00:13;22.30;99.90
34873;DHT22;21084;51.098;14.506;2023-08-17T07:02:41;22.20;99.90
34873;DHT22;21084;51.098;14.506;2023-08-17T07:05:20;22.20;99.90
34873;DHT22;21084;51.098;14.506;2023-08-17T07:07:48;22.20;99.90
34873;DHT22;21084;51.098;14.506;2023-08-17T07:10:18;22.10;99.90
34873;DHT22;21084;51.098;14.506;2023-08-17T07:12:46;22.30;99.90
34873;DHT22;21084;51.098;14.506;2023-08-17T07:15:15;22.50;99.90
34873;DHT22;21084;51.098;14.506;2023-08-17T07:17:43;22.70;99.90
34873;DHT22;21084;51.098;14.506;2023-08-17T07:20:11;22.80;99.90
34873;DHT22;21084;51.098;14.506;2023-08-17T07:22:43;22.90;99.90
34873;DHT22;21084;51.098;14.506;2023-08-17T07:25:12;23.00;99.90
34873;DHT22;21084;51.098;14.506;2023-08-17T07:27:42;23.20;99.90
34873;DHT22;21084;51.098;14.506;2023-08-17T07:30:11;23.20;99.90
34873;DHT22;21084;51.098;14.506;2023-08-17T07:32:39;23.20;99.90
34873;DHT22;21084;51.098;14.506;2023-08-17T07:35:08;23.40;99.90
34873;DHT22;21084;51.098;14.506;2023-08-17T07:37:36;23.60;99.90
34873;DHT22;21084;51.098;14.506;2023-08-17T07:40:05;23.80;99.90
34873;DHT22;21084;51.098;14.506;2023-08-17T07:42:34;24.00;99.90
34873;DHT22;21084;51.098;14.506;2023-08-17T07:45:06;24.10;99.90
34873;DHT22;21084;51.098;14.506;2023-08-17T07:47:35;24.60;99.90
34873;DHT22;21084;51.098;14.506;2023-08-17T07:50:04;24.80;99.90
34873;DHT22;21084;51.098;14.506;2023-08-17T07:52:33;24.80;99.90
34873;DHT22;21084;51.098;14.506;2023-08-17T07:55:01;24.80;99.90
34873;DHT22;21084;51.098;14.506;2023-08-17T07:57:30;24.90;99.90
34873;DHT22;21084;51.098;14.506;2023-08-17T07:59:58;24.90;99.90
34873;DHT22;21084;51.098;14.506;2023-08-17T08:02:28;24.90;99.90
34873;DHT22;21084;51.098;14.506;2023-08-17T08:04:56;24.80;99.90
34873;DHT22;21084;51.098;14.506;2023-08-17T08:07:25;24.80;99.90
34873;DHT22;21084;51.098;14.506;2023-08-17T08:09:54;24.60;99.90
34873;DHT22;21084;51.098;14.506;2023-08-17T08:12:23;24.80;99.90
34873;DHT22;21084;51.098;14.506;2023-08-17T08:14:51;25.30;99.90
34873;DHT22;21084;51.098;14.506;2023-08-17T08:17:20;26.00;99.90
34873;DHT22;21084;51.098;14.506;2023-08-17T08:19:49;26.40;99.90
34873;DHT22;21084;51.098;14.506;2023-08-17T08:22:18;26.30;99.90
34873;DHT22;21084;51.098;14.506;2023-08-17T08:24:46;26.00;99.90
34873;DHT22;21084;51.098;14.506;2023-08-17T08:27:14;25.80;99.90
34873;DHT22;21084;51.098;14.506;2023-08-17T08:29:43;25.70;99.90
34873;DHT22;21084;51.098;14.506;2023-08-17T08:32:11;25.70;99.90
34873;DHT22;21084;51.098;14.506;2023-08-17T08:34:40;25.60;99.90
34873;DHT22;21084;51.098;14.506;2023-08-17T08:37:09;25.50;99.90
34873;DHT22;21084;51.098;14.506;2023-08-17T08:39:47;25.20;99.90
34873;DHT22;21084;51.098;14.506;2023-08-17T08:42:16;25.10;99.90
34873;DHT22;21084;51.098;14.506;2023-08-17T08:44:44;24.90;99.90
34873;DHT22;21084;51.098;14.506;2023-08-17T08:47:13;24.90;99.90
34873;DHT22;21084;51.098;14.506;2023-08-17T08:49:44;24.90;99.90
34873;DHT22;21084;51.098;14.506;2023-08-17T08:52:16;25.10;99.90
34873;DHT22;21084;51.098;14.506;2023-08-17T08:54:48;25.10;99.90
34873;DHT22;21084;51.098;14.506;2023-08-17T08:57:17;25.10;99.90
34873;DHT22;21084;51.098;14.506;2023-08-17T08:59:46;25.20;99.90
34873;DHT22;21084;51.098;14.506;2023-08-17T09:02:15;25.50;99.90
34873;DHT22;21084;51.098;14.506;2023-08-17T09:04:44;26.00;99.90
34873;DHT22;21084;51.098;14.506;2023-08-17T09:07:13;26.50;99.90
34873;DHT22;21084;51.098;14.506;2023-08-17T09:09:43;26.70;99.90
34873;DHT22;21084;51.098;14.506;2023-08-17T09:12:12;27.00;99.90
34873;DHT22;21084;51.098;14.506;2023-08-17T09:14:55;27.20;99.90
34873;DHT22;21084;51.098;14.506;2023-08-17T09:17:24;27.40;99.90
34873;DHT22;21084;51.098;14.506;2023-08-17T09:19:52;27.40;99.60
34873;DHT22;21084;51.098;14.506;2023-08-17T09:22:24;27.00;99.70
34873;DHT22;21084;51.098;14.506;2023-08-17T09:24:54;27.00;99.90
34873;DHT22;21084;51.098;14.506;2023-08-17T09:27:29;27.20;99.80
34873;DHT22;21084;51.098;14.506;2023-08-17T09:30:02;27.30;99.60
34873;DHT22;21084;51.098;14.506;2023-08-17T09:32:33;27.50;99.90
34873;DHT22;21084;51.098;14.506;2023-08-17T09:35:01;27.90;99.20
34873;DHT22;21084;51.098;14.506;2023-08-17T09:37:31;28.00;98.70
34873;DHT22;21084;51.098;14.506;2023-08-17T09:40:01;28.00;98.50
34873;DHT22;21084;51.098;14.506;2023-08-17T09:42:29;28.50;98.50
34873;DHT22;21084;51.098;14.506;2023-08-17T09:44:58;29.40;97.20
34873;DHT22;21084;51.098;14.506;2023-08-17T09:47:28;30.20;96.40
34873;DHT22;21084;51.098;14.506;2023-08-17T09:49:57;30.70;94.70
34873;DHT22;21084;51.098;14.506;2023-08-17T09:52:25;31.10;94.90
34873;DHT22;21084;51.098;14.506;2023-08-17T09:54:54;31.30;93.30
34873;DHT22;21084;51.098;14.506;2023-08-17T09:57:25;31.70;93.40
34873;DHT22;21084;51.098;14.506;2023-08-17T09:59:53;32.40;92.20
34873;DHT22;21084;51.098;14.506;2023-08-17T10:02:22;32.50;91.80
34873;DHT22;21084;51.098;14.506;2023-08-17T10:04:52;33.20;91.70
34873;DHT22;21084;51.098;14.506;2023-08-17T10:07:23;33.90;90.50
34873;DHT22;21084;51.098;14.506;2023-08-17T10:09:53;34.40;89.90
34873;DHT22;21084;51.098;14.506;2023-08-17T10:12:23;34.60;85.70
34873;DHT22;21084;51.098;14.506;2023-08-17T10:14:55;34.60;85.50
34873;DHT22;21084;51.098;14.506;2023-08-17T10:17:25;35.10;83.80
34873;DHT22;21084;51.098;14.506;2023-08-17T10:19:54;35.30;81.80
34873;DHT22;21084;51.098;14.506;2023-08-17T10:22:26;35.60;78.60
34873;DHT22;21084;51.098;14.506;2023-08-17T10:24:56;36.00;79.80
34873;DHT22;21084;51.098;14.506;2023-08-17T10:27:26;36.10;78.40
34873;DHT22;21084;51.098;14.506;2023-08-17T10:29:56;36.10;77.50
34873;DHT22;21084;51.098;14.506;2023-08-17T10:32:26;35.90;77.00
34873;DHT22;21084;51.098;14.506;2023-08-17T10:34:55;35.50;78.20
34873;DHT22;21084;51.098;14.506;2023-08-17T10:37:24;35.30;77.50
34873;DHT22;21084;51.098;14.506;2023-08-17T10:39:52;35.40;78.10
34873;DHT22;21084;51.098;14.506;2023-08-17T10:42:30;35.20;77.50
34873;DHT22;21084;51.098;14.506;2023-08-17T10:45:01;35.10;76.90
34873;DHT22;21084;51.098;14.506;2023-08-17T10:47:31;35.50;78.70
34873;DHT22;21084;51.098;14.506;2023-08-17T10:50:03;35.60;76.80
34873;DHT22;21084;51.098;14.506;2023-08-17T10:52:32;35.60;75.30
34873;DHT22;21084;51.098;14.506;2023-08-17T10:55:01;35.60;77.40
34873;DHT22;21084;51.098;14.506;2023-08-17T10:57:32;35.50;76.10
34873;DHT22;21084;51.098;14.506;2023-08-17T11:00:18;35.40;75.20
34873;DHT22;21084;51.098;14.506;2023-08-17T11:02:52;35.30;77.40
34873;DHT22;21084;51.098;14.506;2023-08-17T11:05:40;35.30;78.30
34873;DHT22;21084;51.098;14.506;2023-08-17T11:08:09;35.40;76.80
34873;DHT22;21084;51.098;14.506;2023-08-17T11:10:41;35.30;75.70
34873;DHT22;21084;51.098;14.506;2023-08-17T11:13:14;34.90;77.40
34873;DHT22;21084;51.098;14.506;2023-08-17T11:15:44;35.10;74.80
34873;DHT22;21084;51.098;14.506;2023-08-17T11:18:15;34.70;76.20
34873;DHT22;21084;51.098;14.506;2023-08-17T11:20:43;35.00;75.40
34873;DHT22;21084;51.098;14.506;2023-08-17T11:23:12;35.20;73.40
34873;DHT22;21084;51.098;14.506;2023-08-17T11:25:41;35.50;73.50
34873;DHT22;21084;51.098;14.506;2023-08-17T11:28:09;35.70;73.60
34873;DHT22;21084;51.098;14.506;2023-08-17T11:30:37;36.20;73.60
34873;DHT22;21084;51.098;14.506;2023-08-17T11:33:08;36.40;71.20
34873;DHT22;21084;51.098;14.506;2023-08-17T11:35:36;36.60;72.60
34873;DHT22;21084;51.098;14.506;2023-08-17T11:38:06;36.70;71.40
34873;DHT22;21084;51.098;14.506;2023-08-17T11:40:35;36.80;72.10
34873;DHT22;21084;51.098;14.506;2023-08-17T11:43:04;36.70;70.70
34873;DHT22;21084;51.098;14.506;2023-08-17T11:45:32;36.80;71.50
34873;DHT22;21084;51.098;14.506;2023-08-17T11:48:01;37.00;72.00
34873;DHT22;21084;51.098;14.506;2023-08-17T11:50:32;37.10;69.10
34873;DHT22;21084;51.098;14.506;2023-08-17T11:53:06;37.10;69.70
34873;DHT22;21084;51.098;14.506;2023-08-17T11:55:34;37.10;68.40
34873;DHT22;21084;51.098;14.506;2023-08-17T11:58:02;37.20;68.00
34873;DHT22;21084;51.098;14.506;2023-08-17T12:00:36;36.70;67.40
34873;DHT22;21084;51.098;14.506;2023-08-17T12:03:05;36.70;70.40
34873;DHT22;21084;51.098;14.506;2023-08-17T12:05:34;36.90;69.30
34873;DHT22;21084;51.098;14.506;2023-08-17T12:08:03;36.90;68.00
34873;DHT22;21084;51.098;14.506;2023-08-17T12:10:31;37.20;68.60
34873;DHT22;21084;51.098;14.506;2023-08-17T12:13:00;37.60;68.30
34873;DHT22;21084;51.098;14.506;2023-08-17T12:15:30;37.80;66.60
34873;DHT22;21084;51.098;14.506;2023-08-17T12:17:59;37.60;65.90
34873;DHT22;21084;51.098;14.506;2023-08-17T12:20:27;37.50;67.20
34873;DHT22;21084;51.098;14.506;2023-08-17T12:22:58;37.20;66.00
34873;DHT22;21084;51.098;14.506;2023-08-17T12:25:26;36.80;66.10
34873;DHT22;21084;51.098;14.506;2023-08-17T12:27:57;37.20;67.30
34873;DHT22;21084;51.098;14.506;2023-08-17T12:30:26;37.50;66.80
34873;DHT22;21084;51.098;14.506;2023-08-17T12:32:54;36.60;66.10
34873;DHT22;21084;51.098;14.506;2023-08-17T12:35:24;35.70;68.30
34873;DHT22;21084;51.098;14.506;2023-08-17T12:37:53;35.10;68.80
34873;DHT22;21084;51.098;14.506;2023-08-17T12:40:23;34.10;70.80
34873;DHT22;21084;51.098;14.506;2023-08-17T12:42:51;33.70;72.30
34873;DHT22;21084;51.098;14.506;2023-08-17T12:45:20;33.40;72.80
34873;DHT22;21084;51.098;14.506;2023-08-17T12:47:48;33.10;73.90
34873;DHT22;21084;51.098;14.506;2023-08-17T12:50:16;33.40;75.40
34873;DHT22;21084;51.098;14.506;2023-08-17T12:52:45;33.70;72.60
34873;DHT22;21084;51.098;14.506;2023-08-17T12:55:13;34.10;71.00
34873;DHT22;21084;51.098;14.506;2023-08-17T12:57:43;34.60;68.90
34873;DHT22;21084;51.098;14.506;2023-08-17T13:00:12;35.00;64.40
34873;DHT22;21084;51.098;14.506;2023-08-17T13:02:40;34.70;64.50
34873;DHT22;21084;51.098;14.506;2023-08-17T13:05:09;34.40;64.00
34873;DHT22;21084;51.098;14.506;2023-08-17T13:07:37;34.20;63.60
34873;DHT22;21084;51.098;14.506;2023-08-17T13:10:06;34.30;65.30
34873;DHT22;21084;51.098;14.506;2023-08-17T13:12:34;34.20;64.90
34873;DHT22;21084;51.098;14.506;2023-08-17T13:15:04;34.10;62.80
34873;DHT22;21084;51.098;14.506;2023-08-17T13:17:33;34.20;63.50
34873;DHT22;21084;51.098;14.506;2023-08-17T13:20:01;34.10;63.80
34873;DHT22;21084;51.098;14.506;2023-08-17T13:22:30;33.90;61.90
34873;DHT22;21084;51.098;14.506;2023-08-17T13:24:59;33.60;62.00
34873;DHT22;21084;51.098;14.506;2023-08-17T13:27:27;33.30;62.50
34873;DHT22;21084;51.098;14.506;2023-08-17T13:29:56;33.40;66.30
34873;DHT22;21084;51.098;14.506;2023-08-17T13:32:27;33.40;64.20
34873;DHT22;21084;51.098;14.506;2023-08-17T13:34:56;33.30;65.00
34873;DHT22;21084;51.098;14.506;2023-08-17T13:37:24;33.30;63.30
34873;DHT22;21084;51.098;14.506;2023-08-17T13:39:54;33.10;65.70
34873;DHT22;21084;51.098;14.506;2023-08-17T13:42:23;33.40;64.50
34873;DHT22;21084;51.098;14.506;2023-08-17T13:44:52;33.40;63.80
34873;DHT22;21084;51.098;14.506;2023-08-17T13:47:20;33.80;64.40
34873;DHT22;21084;51.098;14.506;2023-08-17T13:49:50;34.00;63.00
34873;DHT22;21084;51.098;14.506;2023-08-17T13:52:19;34.30;61.20
34873;DHT22;21084;51.098;14.506;2023-08-17T13:54:47;34.20;60.70
34873;DHT22;21084;51.098;14.506;2023-08-17T13:57:16;34.40;62.30
34873;DHT22;21084;51.098;14.506;2023-08-17T13:59:44;34.60;60.00
34873;DHT22;21084;51.098;14.506;2023-08-17T14:02:12;34.40;59.30
34873;DHT22;21084;51.098;14.506;2023-08-17T14:04:41;35.10;60.00
34873;DHT22;21084;51.098;14.506;2023-08-17T14:07:11;35.50;58.20
34873;DHT22;21084;51.098;14.506;2023-08-17T14:09:39;35.30;60.70
34873;DHT22;21084;51.098;14.506;2023-08-17T14:12:20;35.40;58.30
34873;DHT22;21084;51.098;14.506;2023-08-17T14:14:48;35.40;58.30
34873;DHT22;21084;51.098;14.506;2023-08-17T14:17:16;35.90;59.60
34873;DHT22;21084;51.098;14.506;2023-08-17T14:19:45;36.10;56.10
34873;DHT22;21084;51.098;14.506;2023-08-17T14:22:15;36.10;55.90
34873;DHT22;21084;51.098;14.506;2023-08-17T14:24:44;36.20;56.60
34873;DHT22;21084;51.098;14.506;2023-08-17T14:27:12;36.20;57.00
34873;DHT22;21084;51.098;14.506;2023-08-17T14:29:41;36.60;59.10
34873;DHT22;21084;51.098;14.506;2023-08-17T14:32:14;36.80;56.30
34873;DHT22;21084;51.098;14.506;2023-08-17T14:34:43;37.00;57.40
34873;DHT22;21084;51.098;14.506;2023-08-17T14:37:12;37.00;58.20
34873;DHT22;21084;51.098;14.506;2023-08-17T14:39:42;36.40;59.30
34873;DHT22;21084;51.098;14.506;2023-08-17T14:42:11;36.50;59.60
34873;DHT22;21084;51.098;14.506;2023-08-17T14:44:39;36.80;60.80
34873;DHT22;21084;51.098;14.506;2023-08-17T14:47:07;36.40;61.20
34873;DHT22;21084;51.098;14.506;2023-08-17T14:49:37;36.70;61.60
34873;DHT22;21084;51.098;14.506;2023-08-17T14:52:06;37.30;60.40
34873;DHT22;21084;51.098;14.506;2023-08-17T14:54:34;37.40;61.50
34873;DHT22;21084;51.098;14.506;2023-08-17T14:57:10;37.00;61.40
34873;DHT22;21084;51.098;14.506;2023-08-17T14:59:38;37.00;61.40
34873;DHT22;21084;51.098;14.506;2023-08-17T15:02:06;37.00;62.70
34873;DHT22;21084;51.098;14.506;2023-08-17T15:04:36;37.00;61.40
34873;DHT22;21084;51.098;14.506;2023-08-17T15:07:05;36.40;62.40
34873;DHT22;21084;51.098;14.506;2023-08-17T15:09:37;36.90;63.30
34873;DHT22;21084;51.098;14.506;2023-08-17T15:12:06;36.00;63.20
34873;DHT22;21084;51.098;14.506;2023-08-17T15:14:36;36.10;64.60
34873;DHT22;21084;51.098;14.506;2023-08-17T15:17:04;36.40;63.90
34873;DHT22;21084;51.098;14.506;2023-08-17T15:19:32;36.20;63.60
34873;DHT22;21084;51.098;14.506;2023-08-17T15:22:07;36.10;64.20
34873;DHT22;21084;51.098;14.506;2023-08-17T15:24:41;36.10;63.80
34873;DHT22;21084;51.098;14.506;2023-08-17T15:27:11;35.10;64.20